sensor_id;sensor_type;location;lat;lon;timestamp;pressure;altitude;pressure_sealevel;temperature;humidity
68399;BME280;56258;52.196;13.868;2022-07-01T00:01:38;100771.81;;;27.80;46.07
68399;BME280;56258;52.196;13.868;2022-07-01T00:04:07;100777.88;;;27.82;45.63
68399;BME280;56258;52.196;13.868;2022-07-01T00:06:34;100782.75;;;27.80;45.89
68399;BME280;56258;52.196;13.868;2022-07-01T00:09:01;100778.56;;;27.77;45.86
68399;BME280;56258;52.196;13.868;2022-07-01T00:11:28;100774.16;;;27.76;46.43
68399;BME280;56258;52.196;13.868;2022-07-01T00:13:54;100772.50;;;27.75;46.12
68399;BME280;56258;52.196;13.868;2022-07-01T00:16:21;100772.88;;;27.79;45.58
68399;BME280;56258;52.196;13.868;2022-07-01T00:18:48;100771.91;;;27.73;46.02
68399;BME280;56258;52.196;13.868;2022-07-01T00:21:15;100769.53;;;27.77;45.74
68399;BME280;56258;52.196;13.868;2022-07-01T00:23:42;100763.47;;;27.75;46.02
68399;BME280;56258;52.196;13.868;2022-07-01T00:26:08;100765.97;;;27.76;45.79
68399;BME280;56258;52.196;13.868;2022-07-01T00:28:35;100774.16;;;27.76;46.23
68399;BME280;56258;52.196;13.868;2022-07-01T00:31:02;100772.66;;;27.80;45.92
68399;BME280;56258;52.196;13.868;2022-07-01T00:33:28;100763.63;;;27.80;46.01
68399;BME280;56258;52.196;13.868;2022-07-01T00:35:55;100762.78;;;27.79;45.83
68399;BME280;56258;52.196;13.868;2022-07-01T00:38:22;100763.63;;;27.80;45.83
68399;BME280;56258;52.196;13.868;2022-07-01T00:40:55;100756.25;;;27.80;45.83
68399;BME280;56258;52.196;13.868;2022-07-01T00:43:22;100752.91;;;27.78;45.70
68399;BME280;56258;52.196;13.868;2022-07-01T00:46:12;100760.25;;;27.78;46.18
68399;BME280;56258;52.196;13.868;2022-07-01T00:48:39;100752.91;;;27.78;46.00
68399;BME280;56258;52.196;13.868;2022-07-01T00:51:06;100758.97;;;27.80;45.89
68399;BME280;56258;52.196;13.868;2022-07-01T00:53:34;100766.56;;;27.78;46.41
68399;BME280;56258;52.196;13.868;2022-07-01T00:56:00;100762.63;;;27.74;45.85
68399;BME280;56258;52.196;13.868;2022-07-01T00:58:28;100757.66;;;27.71;45.89
68399;BME280;56258;52.196;13.868;2022-07-01T01:00:56;100760.69;;;27.63;46.21
68399;BME280;56258;52.196;13.868;2022-07-01T01:03:26;100763.34;;;27.70;46.28
68399;BME280;56258;52.196;13.868;2022-07-01T01:05:53;100755.28;;;27.75;46.14
68399;BME280;56258;52.196;13.868;2022-07-01T01:08:24;100763.72;;;27.73;45.93
68399;BME280;56258;52.196;13.868;2022-07-01T01:10:53;100762.34;;;27.64;46.19
68399;BME280;56258;52.196;13.868;2022-07-01T01:13:20;100758.34;;;27.67;46.45
68399;BME280;56258;52.196;13.868;2022-07-01T01:15:47;100758.72;;;27.70;46.39
68399;BME280;56258;52.196;13.868;2022-07-01T01:18:15;100762.06;;;27.72;46.21
68399;BME280;56258;52.196;13.868;2022-07-01T01:20:41;100768.59;;;27.71;46.38
68399;BME280;56258;52.196;13.868;2022-07-01T01:23:08;100765.03;;;27.71;45.91
68399;BME280;56258;52.196;13.868;2022-07-01T01:25:35;100770.34;;;27.66;46.41
68399;BME280;56258;52.196;13.868;2022-07-01T01:28:02;100761.94;;;27.67;46.25
68399;BME280;56258;52.196;13.868;2022-07-01T01:30:29;100764.66;;;27.67;45.83
68399;BME280;56258;52.196;13.868;2022-07-01T01:32:56;100760.88;;;27.68;46.51
68399;BME280;56258;52.196;13.868;2022-07-01T01:35:23;100757.06;;;27.69;46.08
68399;BME280;56258;52.196;13.868;2022-07-01T01:37:50;100758.72;;;27.70;46.00
68399;BME280;56258;52.196;13.868;2022-07-01T01:40:18;100753.94;;;27.66;46.08
68399;BME280;56258;52.196;13.868;2022-07-01T01:42:45;100757.50;;;27.66;46.14
68399;BME280;56258;52.196;13.868;2022-07-01T01:45:12;100755.41;;;27.68;46.33
68399;BME280;56258;52.196;13.868;2022-07-01T01:47:39;100750.59;;;27.63;46.28
68399;BME280;56258;52.196;13.868;2022-07-01T01:50:08;100749.94;;;27.68;46.25
68399;BME280;56258;52.196;13.868;2022-07-01T01:52:35;100745.53;;;27.67;46.14
68399;BME280;56258;52.196;13.868;2022-07-01T01:55:05;100744.91;;;27.65;46.19
68399;BME280;56258;52.196;13.868;2022-07-01T01:57:32;100746.19;;;27.62;46.49
68399;BME280;56258;52.196;13.868;2022-07-01T01:59:59;100738.63;;;27.65;45.96
68399;BME280;56258;52.196;13.868;2022-07-01T02:02:26;100741.56;;;27.63;46.18
68399;BME280;56258;52.196;13.868;2022-07-01T02:04:53;100733.63;;;27.61;46.39
68399;BME280;56258;52.196;13.868;2022-07-01T02:07:19;100737.66;;;27.59;46.63
68399;BME280;56258;52.196;13.868;2022-07-01T02:09:46;100737.75;;;27.64;46.50
68399;BME280;56258;52.196;13.868;2022-07-01T02:12:12;100733.38;;;27.63;46.09
68399;BME280;56258;52.196;13.868;2022-07-01T02:14:39;100734.44;;;27.62;46.25
68399;BME280;56258;52.196;13.868;2022-07-01T02:17:07;100727.06;;;27.62;46.53
68399;BME280;56258;52.196;13.868;2022-07-01T02:19:33;100730.66;;;27.63;46.38
68399;BME280;56258;52.196;13.868;2022-07-01T02:22:00;100726.25;;;27.62;46.23
68399;BME280;56258;52.196;13.868;2022-07-01T02:24:27;100726.13;;;27.57;46.76
68399;BME280;56258;52.196;13.868;2022-07-01T02:26:53;100714.38;;;27.56;46.70
68399;BME280;56258;52.196;13.868;2022-07-01T02:29:20;100717.31;;;27.55;46.65
68399;BME280;56258;52.196;13.868;2022-07-01T02:31:47;100718.63;;;27.52;46.42
68399;BME280;56258;52.196;13.868;2022-07-01T02:34:14;100724.91;;;27.53;46.82
68399;BME280;56258;52.196;13.868;2022-07-01T02:36:41;100730.38;;;27.53;46.47
68399;BME280;56258;52.196;13.868;2022-07-01T02:39:07;100738.34;;;27.54;46.57
68399;BME280;56258;52.196;13.868;2022-07-01T02:41:34;100736.69;;;27.53;46.50
68399;BME280;56258;52.196;13.868;2022-07-01T02:44:20;100740.69;;;27.39;46.85
68399;BME280;56258;52.196;13.868;2022-07-01T02:46:47;100742.47;;;27.33;47.26
68399;BME280;56258;52.196;13.868;2022-07-01T02:49:14;100741.66;;;27.45;46.66
68399;BME280;56258;52.196;13.868;2022-07-01T02:51:41;100741.97;;;27.37;47.25
68399;BME280;56258;52.196;13.868;2022-07-01T02:54:08;100734.28;;;27.33;46.93
68399;BME280;56258;52.196;13.868;2022-07-01T02:56:35;100733.47;;;27.45;47.04
68399;BME280;56258;52.196;13.868;2022-07-01T02:59:01;100736.75;;;27.35;46.91
68399;BME280;56258;52.196;13.868;2022-07-01T03:01:28;100732.63;;;27.44;46.82
68399;BME280;56258;52.196;13.868;2022-07-01T03:03:55;100733.19;;;27.35;47.00
68399;BME280;56258;52.196;13.868;2022-07-01T03:06:22;100735.78;;;27.29;47.18
68399;BME280;56258;52.196;13.868;2022-07-01T03:08:49;100730.38;;;27.11;48.03
68399;BME280;56258;52.196;13.868;2022-07-01T03:11:15;100730.66;;;27.21;47.62
68399;BME280;56258;52.196;13.868;2022-07-01T03:13:42;100727.09;;;27.21;47.38
68399;BME280;56258;52.196;13.868;2022-07-01T03:16:09;100727.97;;;27.33;47.15
68399;BME280;56258;52.196;13.868;2022-07-01T03:18:36;100729.59;;;27.22;47.90
68399;BME280;56258;52.196;13.868;2022-07-01T03:21:02;100737.63;;;27.17;47.63
68399;BME280;56258;52.196;13.868;2022-07-01T03:23:29;100749.06;;;27.26;47.84
68399;BME280;56258;52.196;13.868;2022-07-01T03:25:56;100745.88;;;27.29;47.32
68399;BME280;56258;52.196;13.868;2022-07-01T03:28:22;100745.38;;;27.32;47.59
68399;BME280;56258;52.196;13.868;2022-07-01T03:30:49;100759.03;;;27.32;47.86
68399;BME280;56258;52.196;13.868;2022-07-01T03:33:16;100753.38;;;27.33;47.51
68399;BME280;56258;52.196;13.868;2022-07-01T03:35:42;100749.34;;;27.36;47.46
68399;BME280;56258;52.196;13.868;2022-07-01T03:38:12;100759.47;;;27.47;46.96
68399;BME280;56258;52.196;13.868;2022-07-01T03:40:39;100754.56;;;27.38;47.18
68399;BME280;56258;52.196;13.868;2022-07-01T03:43:06;100752.59;;;27.45;47.56
68399;BME280;56258;52.196;13.868;2022-07-01T03:45:33;100751.84;;;27.38;47.56
68399;BME280;56258;52.196;13.868;2022-07-01T03:48:00;100755.88;;;27.35;47.26
68399;BME280;56258;52.196;13.868;2022-07-01T03:50:27;100759.22;;;27.49;47.01
68399;BME280;56258;52.196;13.868;2022-07-01T03:52:54;100749.41;;;27.59;46.75
68399;BME280;56258;52.196;13.868;2022-07-01T03:55:40;100749.38;;;27.48;47.00
68399;BME280;56258;52.196;13.868;2022-07-01T03:58:07;100743.56;;;27.44;46.99
68399;BME280;56258;52.196;13.868;2022-07-01T04:00:36;100747.47;;;27.48;47.27
68399;BME280;56258;52.196;13.868;2022-07-01T04:03:04;100749.13;;;27.49;47.02
68399;BME280;56258;52.196;13.868;2022-07-01T04:05:33;100756.16;;;27.45;47.32
68399;BME280;56258;52.196;13.868;2022-07-01T04:08:06;100761.38;;;27.47;46.93
68399;BME280;56258;52.196;13.868;2022-07-01T04:10:34;100759.06;;;27.44;47.04
68399;BME280;56258;52.196;13.868;2022-07-01T04:13:01;100769.88;;;27.39;47.20
68399;BME280;56258;52.196;13.868;2022-07-01T04:15:48;100762.47;;;27.57;46.82
68399;BME280;56258;52.196;13.868;2022-07-01T04:18:15;100763.75;;;27.55;46.87
68399;BME280;56258;52.196;13.868;2022-07-01T04:20:42;100762.91;;;27.54;46.93
68399;BME280;56258;52.196;13.868;2022-07-01T04:23:09;100762.31;;;27.52;46.97
68399;BME280;56258;52.196;13.868;2022-07-01T04:25:35;100765.88;;;27.53;46.78
68399;BME280;56258;52.196;13.868;2022-07-01T04:28:02;100759.22;;;27.49;47.19
68399;BME280;56258;52.196;13.868;2022-07-01T04:30:30;100764.22;;;27.52;47.19
68399;BME280;56258;52.196;13.868;2022-07-01T04:32:56;100756.03;;;27.52;47.17
68399;BME280;56258;52.196;13.868;2022-07-01T04:35:23;100754.50;;;27.56;46.74
68399;BME280;56258;52.196;13.868;2022-07-01T04:37:50;100764.94;;;27.47;47.49
68399;BME280;56258;52.196;13.868;2022-07-01T04:40:17;100765.63;;;27.54;47.28
68399;BME280;56258;52.196;13.868;2022-07-01T04:42:43;100765.44;;;27.56;46.99
68399;BME280;56258;52.196;13.868;2022-07-01T04:45:10;100766.13;;;27.51;47.42
68399;BME280;56258;52.196;13.868;2022-07-01T04:47:37;100775.34;;;27.39;48.66
68399;BME280;56258;52.196;13.868;2022-07-01T04:50:04;100773.44;;;27.39;48.07
68399;BME280;56258;52.196;13.868;2022-07-01T04:52:30;100766.59;;;27.48;48.09
68399;BME280;56258;52.196;13.868;2022-07-01T04:54:57;100769.31;;;27.48;47.82
68399;BME280;56258;52.196;13.868;2022-07-01T04:57:24;100775.03;;;27.47;47.90
68399;BME280;56258;52.196;13.868;2022-07-01T04:59:50;100775.69;;;27.42;48.18
68399;BME280;56258;52.196;13.868;2022-07-01T05:02:17;100767.84;;;27.34;48.16
68399;BME280;56258;52.196;13.868;2022-07-01T05:04:44;100761.81;;;27.44;47.57
68399;BME280;56258;52.196;13.868;2022-07-01T05:07:10;100766.72;;;27.53;47.67
68399;BME280;56258;52.196;13.868;2022-07-01T05:09:55;100762.34;;;27.64;46.76
68399;BME280;56258;52.196;13.868;2022-07-01T05:12:22;100765.84;;;27.71;46.72
68399;BME280;56258;52.196;13.868;2022-07-01T05:14:49;100770.00;;;27.74;46.88
68399;BME280;56258;52.196;13.868;2022-07-01T05:17:16;100770.25;;;27.72;46.69
68399;BME280;56258;52.196;13.868;2022-07-01T05:19:43;100771.78;;;27.68;46.69
68399;BME280;56258;52.196;13.868;2022-07-01T05:22:28;100772.22;;;27.65;46.78
68399;BME280;56258;52.196;13.868;2022-07-01T05:24:55;100782.53;;;27.63;47.18
68399;BME280;56258;52.196;13.868;2022-07-01T05:27:22;100783.38;;;27.63;46.88
68399;BME280;56258;52.196;13.868;2022-07-01T05:29:48;100779.59;;;27.65;46.62
68399;BME280;56258;52.196;13.868;2022-07-01T05:32:15;100775.78;;;27.66;46.82
68399;BME280;56258;52.196;13.868;2022-07-01T05:34:42;100769.41;;;27.72;46.64
68399;BME280;56258;52.196;13.868;2022-07-01T05:37:10;100769.06;;;27.68;46.45
68399;BME280;56258;52.196;13.868;2022-07-01T05:39:37;100775.59;;;27.67;46.54
68399;BME280;56258;52.196;13.868;2022-07-01T05:42:12;100778.53;;;27.66;46.86
68399;BME280;56258;52.196;13.868;2022-07-01T05:44:38;100778.97;;;27.62;46.56
68399;BME280;56258;52.196;13.868;2022-07-01T05:47:06;100770.53;;;27.64;46.59
68399;BME280;56258;52.196;13.868;2022-07-01T05:49:33;100766.53;;;27.67;46.64
68399;BME280;56258;52.196;13.868;2022-07-01T05:52:00;100772.00;;;27.67;46.89
68399;BME280;56258;52.196;13.868;2022-07-01T05:54:26;100772.91;;;27.60;46.69
68399;BME280;56258;52.196;13.868;2022-07-01T05:56:53;100771.50;;;27.58;46.70
68399;BME280;56258;52.196;13.868;2022-07-01T05:59:20;100775.97;;;27.52;46.65
68399;BME280;56258;52.196;13.868;2022-07-01T06:01:46;100780.63;;;27.63;46.77
68399;BME280;56258;52.196;13.868;2022-07-01T06:04:15;100789.25;;;27.67;46.35
68399;BME280;56258;52.196;13.868;2022-07-01T06:06:42;100785.06;;;27.65;46.22
68399;BME280;56258;52.196;13.868;2022-07-01T06:09:08;100786.50;;;27.67;46.92
68399;BME280;56258;52.196;13.868;2022-07-01T06:11:35;100787.09;;;27.69;46.41
68399;BME280;56258;52.196;13.868;2022-07-01T06:14:02;100777.00;;;27.70;46.51
68399;BME280;56258;52.196;13.868;2022-07-01T06:16:29;100772.97;;;27.72;46.51
68399;BME280;56258;52.196;13.868;2022-07-01T06:18:57;100772.97;;;27.72;46.38
68399;BME280;56258;52.196;13.868;2022-07-01T06:21:24;100777.97;;;27.75;45.90
68399;BME280;56258;52.196;13.868;2022-07-01T06:23:51;100778.69;;;27.71;46.28
68399;BME280;56258;52.196;13.868;2022-07-01T06:26:18;100781.88;;;27.68;46.62
68399;BME280;56258;52.196;13.868;2022-07-01T06:28:44;100785.66;;;27.67;46.60
68399;BME280;56258;52.196;13.868;2022-07-01T06:31:11;100780.56;;;27.70;46.23
68399;BME280;56258;52.196;13.868;2022-07-01T06:33:38;100778.53;;;27.66;46.63
68399;BME280;56258;52.196;13.868;2022-07-01T06:36:05;100778.84;;;27.57;46.75
68399;BME280;56258;52.196;13.868;2022-07-01T06:38:32;100780.59;;;27.52;46.91
68399;BME280;56258;52.196;13.868;2022-07-01T06:40:58;100766.78;;;27.65;46.79
68399;BME280;56258;52.196;13.868;2022-07-01T06:43:44;100770.19;;;27.60;46.34
68399;BME280;56258;52.196;13.868;2022-07-01T06:46:11;100767.16;;;27.69;46.05
68399;BME280;56258;52.196;13.868;2022-07-01T06:48:38;100766.31;;;27.68;46.54
68399;BME280;56258;52.196;13.868;2022-07-01T06:51:05;100769.66;;;27.70;46.10
68399;BME280;56258;52.196;13.868;2022-07-01T06:53:32;100769.16;;;27.73;46.08
68399;BME280;56258;52.196;13.868;2022-07-01T06:55:59;100767.28;;;27.74;45.91
68399;BME280;56258;52.196;13.868;2022-07-01T06:58:25;100767.19;;;27.80;46.00
68399;BME280;56258;52.196;13.868;2022-07-01T07:00:52;100756.00;;;27.82;45.74
68399;BME280;56258;52.196;13.868;2022-07-01T07:03:18;100761.81;;;27.85;45.63
68399;BME280;56258;52.196;13.868;2022-07-01T07:05:45;100757.78;;;27.88;45.85
68399;BME280;56258;52.196;13.868;2022-07-01T07:08:12;100760.16;;;27.84;45.63
68399;BME280;56258;52.196;13.868;2022-07-01T07:10:39;100759.94;;;27.86;45.85
68399;BME280;56258;52.196;13.868;2022-07-01T07:13:06;100760.75;;;27.86;45.62
68399;BME280;56258;52.196;13.868;2022-07-01T07:15:32;100763.00;;;27.78;45.92
68399;BME280;56258;52.196;13.868;2022-07-01T07:17:59;100756.38;;;27.85;45.55
68399;BME280;56258;52.196;13.868;2022-07-01T07:20:27;100761.34;;;27.88;45.50
68399;BME280;56258;52.196;13.868;2022-07-01T07:22:56;100765.28;;;27.93;45.77
68399;BME280;56258;52.196;13.868;2022-07-01T07:25:23;100759.00;;;27.92;45.56
68399;BME280;56258;52.196;13.868;2022-07-01T07:27:50;100761.25;;;27.95;45.55
68399;BME280;56258;52.196;13.868;2022-07-01T07:30:17;100758.88;;;27.99;45.47
68399;BME280;56258;52.196;13.868;2022-07-01T07:32:44;100761.34;;;28.00;45.40
68399;BME280;56258;52.196;13.868;2022-07-01T07:35:11;100760.53;;;28.11;45.43
68399;BME280;56258;52.196;13.868;2022-07-01T07:37:39;100760.69;;;28.16;45.09
68399;BME280;56258;52.196;13.868;2022-07-01T07:40:08;100767.22;;;28.15;44.75
68399;BME280;56258;52.196;13.868;2022-07-01T07:42:40;100771.84;;;28.15;45.13
68399;BME280;56258;52.196;13.868;2022-07-01T07:45:07;100766.00;;;28.11;44.70
68399;BME280;56258;52.196;13.868;2022-07-01T07:47:35;100773.84;;;28.19;44.90
68399;BME280;56258;52.196;13.868;2022-07-01T07:50:02;100776.84;;;28.18;44.90
68399;BME280;56258;52.196;13.868;2022-07-01T07:52:30;100779.91;;;28.22;44.90
68399;BME280;56258;52.196;13.868;2022-07-01T07:54:56;100779.66;;;28.23;45.00
68399;BME280;56258;52.196;13.868;2022-07-01T07:57:23;100774.19;;;28.23;44.78
68399;BME280;56258;52.196;13.868;2022-07-01T07:59:50;100775.88;;;28.24;44.73
68399;BME280;56258;52.196;13.868;2022-07-01T08:02:17;100775.44;;;28.27;44.75
68399;BME280;56258;52.196;13.868;2022-07-01T08:04:50;100780.75;;;28.22;44.82
68399;BME280;56258;52.196;13.868;2022-07-01T08:07:17;100777.09;;;28.28;44.64
68399;BME280;56258;52.196;13.868;2022-07-01T08:09:44;100774.38;;;28.28;44.79
68399;BME280;56258;52.196;13.868;2022-07-01T08:12:15;100769.34;;;28.25;44.71
68399;BME280;56258;52.196;13.868;2022-07-01T08:14:43;100765.69;;;28.31;44.55
68399;BME280;56258;52.196;13.868;2022-07-01T08:17:10;100765.78;;;28.36;44.14
68399;BME280;56258;52.196;13.868;2022-07-01T08:19:37;100766.66;;;28.37;44.57
68399;BME280;56258;52.196;13.868;2022-07-01T08:22:04;100770.66;;;28.34;44.48
68399;BME280;56258;52.196;13.868;2022-07-01T08:24:30;100766.50;;;28.32;44.58
68399;BME280;56258;52.196;13.868;2022-07-01T08:26:58;100767.09;;;28.34;44.71
68399;BME280;56258;52.196;13.868;2022-07-01T08:29:24;100770.66;;;28.34;44.65
68399;BME280;56258;52.196;13.868;2022-07-01T08:31:51;100780.53;;;28.47;44.20
68399;BME280;56258;52.196;13.868;2022-07-01T08:34:20;100776.00;;;28.53;44.17
68399;BME280;56258;52.196;13.868;2022-07-01T08:36:46;100776.72;;;28.60;44.08
68399;BME280;56258;52.196;13.868;2022-07-01T08:39:13;100779.47;;;28.60;44.06
68399;BME280;56258;52.196;13.868;2022-07-01T08:41:41;100778.97;;;28.63;43.87
68399;BME280;56258;52.196;13.868;2022-07-01T08:44:08;100776.81;;;28.65;43.83
68399;BME280;56258;52.196;13.868;2022-07-01T08:46:35;100769.94;;;28.62;43.82
68399;BME280;56258;52.196;13.868;2022-07-01T08:49:02;100768.28;;;28.50;44.30
68399;BME280;56258;52.196;13.868;2022-07-01T08:51:29;100765.06;;;28.53;44.34
68399;BME280;56258;52.196;13.868;2022-07-01T08:53:56;100780.06;;;28.62;44.25
68399;BME280;56258;52.196;13.868;2022-07-01T08:56:23;100776.25;;;28.63;43.70
68399;BME280;56258;52.196;13.868;2022-07-01T08:59:09;100781.13;;;28.61;43.93
68399;BME280;56258;52.196;13.868;2022-07-01T09:01:37;100786.78;;;28.71;43.56
68399;BME280;56258;52.196;13.868;2022-07-01T09:04:19;100788.50;;;28.60;44.20
68399;BME280;56258;52.196;13.868;2022-07-01T09:06:47;100783.50;;;28.57;44.25
68399;BME280;56258;52.196;13.868;2022-07-01T09:09:19;100782.06;;;28.66;44.04
68399;BME280;56258;52.196;13.868;2022-07-01T09:11:53;100785.94;;;28.82;43.64
68399;BME280;56258;52.196;13.868;2022-07-01T09:14:22;100783.72;;;28.67;43.80
68399;BME280;56258;52.196;13.868;2022-07-01T09:16:54;100782.78;;;28.62;44.05
68399;BME280;56258;52.196;13.868;2022-07-01T09:19:22;100785.41;;;28.57;44.05
68399;BME280;56258;52.196;13.868;2022-07-01T09:21:55;100779.09;;;28.44;44.36
68399;BME280;56258;52.196;13.868;2022-07-01T09:24:26;100785.31;;;28.28;44.77
68399;BME280;56258;52.196;13.868;2022-07-01T09:27:04;100790.59;;;28.23;44.72
68399;BME280;56258;52.196;13.868;2022-07-01T09:29:42;100790.59;;;28.23;44.91
68399;BME280;56258;52.196;13.868;2022-07-01T09:32:12;100795.63;;;28.26;44.87
68399;BME280;56258;52.196;13.868;2022-07-01T09:34:47;100797.75;;;28.24;44.79
68399;BME280;56258;52.196;13.868;2022-07-01T09:37:18;100802.38;;;28.24;44.80
68399;BME280;56258;52.196;13.868;2022-07-01T09:39:47;100803.19;;;28.24;44.65
68399;BME280;56258;52.196;13.868;2022-07-01T09:42:15;100804.91;;;28.25;44.80
68399;BME280;56258;52.196;13.868;2022-07-01T09:45:03;100810.59;;;28.35;44.66
68399;BME280;56258;52.196;13.868;2022-07-01T09:47:34;100802.88;;;28.44;44.44
68399;BME280;56258;52.196;13.868;2022-07-01T09:50:03;100818.59;;;28.37;44.42
68399;BME280;56258;52.196;13.868;2022-07-01T09:52:30;100832.63;;;28.29;44.92
68399;BME280;56258;52.196;13.868;2022-07-01T09:55:03;100829.72;;;28.24;45.04
68399;BME280;56258;52.196;13.868;2022-07-01T09:57:30;100851.13;;;28.27;44.91
68399;BME280;56258;52.196;13.868;2022-07-01T09:59:57;100868.41;;;28.27;44.84
68399;BME280;56258;52.196;13.868;2022-07-01T10:02:26;100883.00;;;28.33;44.88
68399;BME280;56258;52.196;13.868;2022-07-01T10:05:00;100879.44;;;28.32;44.60
68399;BME280;56258;52.196;13.868;2022-07-01T10:12:59;100925.72;;;28.69;43.99
68399;BME280;56258;52.196;13.868;2022-07-01T10:15:30;100950.59;;;28.79;43.89
68399;BME280;56258;52.196;13.868;2022-07-01T10:17:57;100941.72;;;28.95;43.30
68399;BME280;56258;52.196;13.868;2022-07-01T10:20:26;100945.63;;;28.99;43.21
68399;BME280;56258;52.196;13.868;2022-07-01T10:23:06;100965.59;;;28.76;43.75
68399;BME280;56258;52.196;13.868;2022-07-01T10:25:47;100962.59;;;28.66;43.93
68399;BME280;56258;52.196;13.868;2022-07-01T10:31:09;100967.25;;;28.77;43.70
68399;BME280;56258;52.196;13.868;2022-07-01T10:34:02;100989.97;;;28.78;43.69
68399;BME280;56258;52.196;13.868;2022-07-01T10:36:32;100981.81;;;28.90;43.58
68399;BME280;56258;52.196;13.868;2022-07-01T10:44:38;101004.78;;;28.89;43.57
68399;BME280;56258;52.196;13.868;2022-07-01T10:47:07;101005.84;;;28.99;42.98
68399;BME280;56258;52.196;13.868;2022-07-01T10:52:08;101008.50;;;29.18;42.61
68399;BME280;56258;52.196;13.868;2022-07-01T11:00:23;101028.22;;;28.96;43.38
68399;BME280;56258;52.196;13.868;2022-07-01T11:02:42;101030.59;;;28.93;43.57
68399;BME280;56258;52.196;13.868;2022-07-01T11:05:15;101028.69;;;28.93;43.04
68399;BME280;56258;52.196;13.868;2022-07-01T11:07:44;101028.47;;;28.95;43.21
68399;BME280;56258;52.196;13.868;2022-07-01T11:10:14;101029.47;;;28.82;43.56
68399;BME280;56258;52.196;13.868;2022-07-01T11:12:43;101021.78;;;28.91;43.43
68399;BME280;56258;52.196;13.868;2022-07-01T11:15:15;101020.22;;;28.83;43.66
68399;BME280;56258;52.196;13.868;2022-07-01T11:17:46;101017.47;;;28.83;43.44
68399;BME280;56258;52.196;13.868;2022-07-01T11:20:13;101015.72;;;28.89;43.32
68399;BME280;56258;52.196;13.868;2022-07-01T11:22:48;101015.81;;;28.94;43.41
68399;BME280;56258;52.196;13.868;2022-07-01T11:25:14;101001.44;;;29.22;42.55
68399;BME280;56258;52.196;13.868;2022-07-01T11:27:46;100989.66;;;29.33;42.53
68399;BME280;56258;52.196;13.868;2022-07-01T11:30:13;100990.50;;;29.33;42.55
68399;BME280;56258;52.196;13.868;2022-07-01T11:32:54;100993.47;;;29.20;42.58
68399;BME280;56258;52.196;13.868;2022-07-01T11:35:27;100990.84;;;29.14;42.98
68399;BME280;56258;52.196;13.868;2022-07-01T11:38:14;101009.19;;;29.01;43.07
68399;BME280;56258;52.196;13.868;2022-07-01T11:41:02;101010.34;;;28.94;43.40
68399;BME280;56258;52.196;13.868;2022-07-01T11:43:34;101006.75;;;28.82;43.58
68399;BME280;56258;52.196;13.868;2022-07-01T11:46:03;101013.78;;;28.77;43.61
68399;BME280;56258;52.196;13.868;2022-07-01T11:48:39;101017.31;;;28.66;43.88
68399;BME280;56258;52.196;13.868;2022-07-01T11:51:12;101025.28;;;28.68;43.79
68399;BME280;56258;52.196;13.868;2022-07-01T11:53:50;101015.31;;;28.62;43.65
68399;BME280;56258;52.196;13.868;2022-07-01T11:56:28;101007.22;;;28.78;43.58
68399;BME280;56258;52.196;13.868;2022-07-01T11:58:58;101003.84;;;29.18;42.77
68399;BME280;56258;52.196;13.868;2022-07-01T12:03:53;101008.34;;;29.36;42.21
68399;BME280;56258;52.196;13.868;2022-07-01T12:06:21;101005.75;;;29.53;42.25
68399;BME280;56258;52.196;13.868;2022-07-01T12:08:50;101007.16;;;29.55;42.21
68399;BME280;56258;52.196;13.868;2022-07-01T12:11:18;101001.63;;;29.79;41.73
68399;BME280;56258;52.196;13.868;2022-07-01T12:13:46;101012.06;;;29.93;41.45
68399;BME280;56258;52.196;13.868;2022-07-01T12:16:13;101013.97;;;29.93;41.05
68399;BME280;56258;52.196;13.868;2022-07-01T12:21:17;101025.50;;;29.95;40.99
68399;BME280;56258;52.196;13.868;2022-07-01T12:24:12;101028.03;;;29.85;41.13
68399;BME280;56258;52.196;13.868;2022-07-01T12:29:18;101036.78;;;29.70;41.89
68399;BME280;56258;52.196;13.868;2022-07-01T12:32:03;101040.03;;;29.32;42.54
68399;BME280;56258;52.196;13.868;2022-07-01T12:34:46;101045.00;;;29.12;43.07
68399;BME280;56258;52.196;13.868;2022-07-01T12:37:25;101038.22;;;29.14;43.42
68399;BME280;56258;52.196;13.868;2022-07-01T12:40:01;101043.59;;;29.21;42.77
68399;BME280;56258;52.196;13.868;2022-07-01T12:42:43;101048.47;;;29.19;42.60
68399;BME280;56258;52.196;13.868;2022-07-01T12:45:15;101056.78;;;29.12;43.00
68399;BME280;56258;52.196;13.868;2022-07-01T12:47:44;101063.69;;;29.03;43.30
68399;BME280;56258;52.196;13.868;2022-07-01T12:50:28;101062.00;;;28.90;43.50
68399;BME280;56258;52.196;13.868;2022-07-01T12:53:03;101060.88;;;28.80;43.54
68399;BME280;56258;52.196;13.868;2022-07-01T12:55:33;101077.53;;;28.78;43.68
68399;BME280;56258;52.196;13.868;2022-07-01T12:58:00;101091.81;;;28.80;43.68
68399;BME280;56258;52.196;13.868;2022-07-01T13:00:28;101110.84;;;28.75;43.92
68399;BME280;56258;52.196;13.868;2022-07-01T13:02:58;101126.50;;;28.68;44.02
68399;BME280;56258;52.196;13.868;2022-07-01T13:05:26;101131.84;;;28.63;44.29
68399;BME280;56258;52.196;13.868;2022-07-01T13:07:53;101144.09;;;28.60;44.29
68399;BME280;56258;52.196;13.868;2022-07-01T13:10:20;101136.34;;;28.57;44.26
68399;BME280;56258;52.196;13.868;2022-07-01T13:12:49;101149.41;;;28.55;44.42
68399;BME280;56258;52.196;13.868;2022-07-01T13:15:17;101153.47;;;28.53;44.29
68399;BME280;56258;52.196;13.868;2022-07-01T13:17:45;101147.63;;;28.49;44.33
68399;BME280;56258;52.196;13.868;2022-07-01T13:20:13;101153.53;;;28.46;44.32